Time;durP1;ratioP1;P1;durP2;ratioP2;P2;SDS_P1;SDS_P2;PMS_P1;PMS_P2;Temp;Humidity;BMP_temperature;BMP_pressure;BME280_temperature;BME280_humidity;BME280_pressure;Samples;Min_cycle;Max_cycle;Signal;HPM_P1;HPM_P2
2023/02/19 00:00:02;;;;;;;18.50;4.80;;;;;;;16.05;34.14;98838.37;108020;1254;74073;-66
2023/02/19 00:02:40;;;;;;;16.10;4.70;;;;;;;16.14;33.94;98842.51;108038;1255;62198;-67
2023/02/19 00:05:08;;;;;;;16.70;5.10;;;;;;;16.15;33.95;98844.13;108010;1254;61633;-66
2023/02/19 00:07:36;;;;;;;15.30;5.00;;;;;;;16.37;33.75;98847.89;107916;1260;74160;-66
2023/02/19 00:10:07;;;;;;;17.90;5.60;;;;;;;16.29;33.51;98848.56;108013;1255;71620;-66
2023/02/19 00:12:36;;;;;;;12.30;4.50;;;;;;;16.19;33.71;98842.44;107951;1256;73682;-66
2023/02/19 00:15:06;;;;;;;14.80;4.70;;;;;;;16.29;33.72;98844.24;107988;1254;60069;-65
2023/02/19 00:17:34;;;;;;;17.10;5.20;;;;;;;16.25;33.59;98843.71;108003;1256;61275;-65
2023/02/19 00:20:05;;;;;;;10.80;4.60;;;;;;;16.09;34.04;98842.48;108026;1258;74216;-66
2023/02/19 00:22:35;;;;;;;15.50;4.70;;;;;;;16.19;33.57;98844.05;107979;1256;71189;-67
2023/02/19 00:25:04;;;;;;;14.30;4.90;;;;;;;15.90;33.98;98842.27;108015;1256;72035;-66
2023/02/19 00:27:33;;;;;;;12.00;4.60;;;;;;;15.89;34.19;98838.08;108023;1256;61320;-67
2023/02/19 00:30:03;;;;;;;17.80;5.60;;;;;;;15.86;34.09;98837.42;107913;1258;60414;-65
2023/02/19 00:32:32;;;;;;;13.80;5.30;;;;;;;15.91;34.23;98837.71;107920;1257;73606;-67
2023/02/19 00:35:01;;;;;;;16.00;5.70;;;;;;;15.85;34.21;98834.31;107890;1256;71543;-66
2023/02/19 00:37:31;;;;;;;18.30;4.80;;;;;;;15.91;34.13;98834.96;107963;1257;72921;-64
2023/02/19 00:39:59;;;;;;;13.20;4.50;;;;;;;15.84;34.49;98838.35;107947;1256;62161;-66
2023/02/19 00:42:27;;;;;;;20.20;4.70;;;;;;;16.00;34.02;98840.75;107982;1257;61527;-66
2023/02/19 00:44:55;;;;;;;16.00;4.80;;;;;;;16.08;33.95;98846.14;107942;1256;72877;-62
2023/02/19 00:47:23;;;;;;;10.80;4.30;;;;;;;16.23;33.78;98844.06;107964;1256;69697;-65
2023/02/19 00:49:52;;;;;;;13.80;4.50;;;;;;;16.34;33.43;98842.65;107949;1257;73824;-65
2023/02/19 00:52:21;;;;;;;13.80;4.20;;;;;;;16.03;33.92;98843.32;107971;1256;61811;-64
2023/02/19 00:54:49;;;;;;;18.90;4.90;;;;;;;15.99;33.78;98843.19;107924;1256;60280;-65
2023/02/19 00:57:19;;;;;;;16.50;5.00;;;;;;;15.99;33.87;98848.08;107901;1256;72503;-63
2023/02/19 00:59:47;;;;;;;14.70;4.40;;;;;;;16.14;33.71;98847.05;107872;1256;71126;-65
2023/02/19 01:02:15;;;;;;;17.30;4.80;;;;;;;16.27;33.50;98850.09;107877;1260;73974;-66
2023/02/19 01:04:43;;;;;;;17.10;4.40;;;;;;;16.18;33.66;98852.80;107874;1257;61102;-66
2023/02/19 01:07:11;;;;;;;9.90;4.40;;;;;;;16.34;33.55;98853.58;107905;1257;61094;-66
2023/02/19 01:09:39;;;;;;;17.50;4.80;;;;;;;16.51;33.19;98853.98;107903;1257;74219;-65
2023/02/19 01:12:08;;;;;;;18.20;4.80;;;;;;;16.49;33.23;98858.42;107910;1257;71011;-66
2023/02/19 01:14:37;;;;;;;15.10;4.90;;;;;;;16.41;33.24;98859.23;107941;1260;72882;-67
2023/02/19 01:17:10;;;;;;;16.40;5.10;;;;;;;16.22;33.52;98860.25;107885;1260;61835;-65
2023/02/19 01:19:39;;;;;;;15.00;4.30;;;;;;;16.05;33.75;98867.44;107914;1260;61560;-66
2023/02/19 01:22:07;;;;;;;15.10;5.10;;;;;;;16.37;33.20;98865.77;107934;1256;74133;-65
2023/02/19 01:24:36;;;;;;;14.20;4.50;;;;;;;16.32;33.32;98867.59;107898;1256;71401;-66
2023/02/19 01:27:04;;;;;;;17.00;5.80;;;;;;;16.29;33.39;98863.00;107958;1256;72621;-65
2023/02/19 01:29:33;;;;;;;17.30;6.10;;;;;;;16.01;33.70;98860.52;107963;1256;62480;-65
2023/02/19 01:32:01;;;;;;;14.00;4.90;;;;;;;15.91;33.90;98861.66;107894;1257;60306;-65
2023/02/19 01:34:34;;;;;;;22.00;5.20;;;;;;;15.80;33.99;98869.41;107983;1256;72917;-66
2023/02/19 01:37:03;;;;;;;14.20;4.40;;;;;;;15.76;34.16;98873.81;107956;1257;69728;-66
2023/02/19 01:39:31;;;;;;;15.00;5.10;;;;;;;16.01;33.89;98869.66;107923;1256;72685;-66
2023/02/19 01:41:59;;;;;;;16.00;4.90;;;;;;;16.11;33.63;98871.76;107946;1257;61784;-66
2023/02/19 01:44:27;;;;;;;12.00;4.30;;;;;;;16.20;33.53;98873.00;107950;1256;60349;-65
2023/02/19 01:46:57;;;;;;;14.30;4.30;;;;;;;16.32;33.40;98875.95;107969;1256;75051;-67
2023/02/19 01:49:27;;;;;;;12.80;4.50;;;;;;;16.26;33.44;98875.52;107972;1256;71146;-66
2023/02/19 01:52:11;;;;;;;16.90;5.10;;;;;;;16.55;33.26;98878.45;107968;1256;73485;-66
2023/02/19 01:54:40;;;;;;;11.90;4.00;;;;;;;16.79;32.68;98877.79;107953;1255;60376;-66
2023/02/19 01:57:12;;;;;;;15.60;4.80;;;;;;;16.52;32.92;98874.30;107936;1256;61319;-67
2023/02/19 01:59:40;;;;;;;13.60;4.40;;;;;;;16.39;33.29;98877.81;107988;1256;73068;-68
2023/02/19 02:02:09;;;;;;;19.60;5.30;;;;;;;16.30;33.30;98877.70;108062;1257;70584;-67
2023/02/19 02:04:37;;;;;;;17.00;5.60;;;;;;;16.22;33.62;98880.46;107948;1254;72001;-65
2023/02/19 02:10:18;;;;;;;16.50;4.70;;;;;;;16.11;33.76;98883.76;108065;1254;60905;-67
2023/02/19 02:12:49;;;;;;;11.90;4.30;;;;;;;16.08;33.84;98893.92;107946;1255;73689;-66
2023/02/19 02:15:18;;;;;;;14.50;4.90;;;;;;;15.99;34.01;98899.98;108041;1256;71319;-66
2023/02/19 02:17:59;;;;;;;16.00;4.70;;;;;;;15.89;34.15;98906.93;107774;1262;72904;-66
2023/02/19 02:21:01;;;;;;;15.40;4.50;;;;;;;16.03;33.82;98907.81;107960;1257;62168;-66
2023/02/19 02:23:35;;;;;;;16.00;4.40;;;;;;;16.17;33.74;98909.31;107483;1256;60358;-65
2023/02/19 02:26:11;;;;;;;18.20;5.50;;;;;;;16.04;33.82;98915.31;107904;1259;75078;-66
2023/02/19 02:29:01;;;;;;;18.90;5.10;;;;;;;15.91;34.12;98909.79;107934;1258;70827;-66
2023/02/19 02:31:38;;;;;;;18.30;4.40;;;;;;;16.03;34.12;98913.14;107932;1256;73938;-64
2023/02/19 02:34:15;;;;;;;20.10;4.50;;;;;;;16.21;33.75;98909.17;107977;1257;62198;-65
2023/02/19 02:36:45;;;;;;;14.90;4.20;;;;;;;16.36;33.55;98913.50;108037;1254;60355;-66
2023/02/19 02:39:16;;;;;;;20.30;4.90;;;;;;;16.29;33.63;98919.16;107945;1259;74074;-66
2023/02/19 02:42:26;;;;;;;15.20;4.20;;;;;;;16.40;33.36;98924.14;107989;1259;71030;-66
2023/02/19 02:44:37;;;;;;;15.50;4.60;;;;;;;16.58;33.13;98926.23;107999;1254;72968;-67
2023/02/19 02:47:39;;;;;;;12.40;4.40;;;;;;;16.55;33.15;98925.61;107926;1260;61851;-65
2023/02/19 02:50:04;;;;;;;16.10;4.80;;;;;;;16.18;33.57;98934.21;108009;1258;60793;-66
2023/02/19 02:55:23;;;;;;;12.60;4.40;;;;;;;16.14;33.72;98932.05;107883;1256;71278;-65
2023/02/19 02:57:51;;;;;;;17.90;4.60;;;;;;;15.95;34.05;98931.57;107924;1260;73478;-65
2023/02/19 03:00:19;;;;;;;14.50;5.00;;;;;;;15.99;33.98;98936.05;107946;1257;62360;-66
2023/02/19 03:02:48;;;;;;;19.00;5.10;;;;;;;15.90;34.12;98937.48;107982;1256;60453;-65
2023/02/19 03:08:20;;;;;;;14.60;4.60;;;;;;;15.87;34.16;98948.35;107878;1256;71592;-66
2023/02/19 03:10:53;;;;;;;14.90;4.60;;;;;;;15.85;34.14;98953.78;107925;1256;73816;-66
2023/02/19 03:19:17;;;;;;;14.20;4.90;;;;;;;15.63;34.53;98960.25;107879;1259;75058;-67
2023/02/19 03:22:08;;;;;;;13.10;4.70;;;;;;;15.73;34.37;98959.67;107988;1258;70789;-65
2023/02/19 03:27:32;;;;;;;10.90;4.30;;;;;;;15.57;34.74;98963.36;108036;1257;62493;-65
2023/02/19 03:30:20;;;;;;;14.10;4.30;;;;;;;15.50;34.65;98970.61;107840;1257;60395;-66
2023/02/19 03:33:19;;;;;;;18.00;4.40;;;;;;;15.43;34.80;98973.41;107852;1254;73677;-66
2023/02/19 03:36:06;;;;;;;15.40;5.20;;;;;;;15.47;35.15;98971.92;107954;1257;71657;-66
2023/02/19 03:38:47;;;;;;;18.30;5.30;;;;;;;15.48;35.08;98975.16;107886;1257;73566;-65
2023/02/19 03:41:48;;;;;;;16.10;5.30;;;;;;;15.31;35.18;98969.73;107928;1259;62056;-65
2023/02/19 03:44:41;;;;;;;13.00;4.20;;;;;;;15.03;35.48;98982.63;107916;1256;61436;-66
2023/02/19 03:47:36;;;;;;;18.70;4.40;;;;;;;15.00;35.75;98989.05;107931;1257;73990;-65
2023/02/19 03:50:13;;;;;;;12.40;4.20;;;;;;;15.22;35.26;98990.70;107994;1256;71584;-66
2023/02/19 03:53:06;;;;;;;14.30;5.00;;;;;;;15.03;35.69;98996.55;108010;1255;73317;-66
2023/02/19 03:56:01;;;;;;;13.80;4.50;;;;;;;15.02;35.55;99001.02;107805;1257;62214;-65
2023/02/19 03:58:57;;;;;;;19.10;5.40;;;;;;;14.98;35.66;99003.48;107885;1256;60315;-64
2023/02/19 04:01:32;;;;;;;13.50;4.20;;;;;;;15.00;35.73;99005.91;108032;1258;75063;-67
2023/02/19 04:04:19;;;;;;;18.70;4.10;;;;;;;15.32;35.27;98999.02;107818;1256;71844;-66
2023/02/19 04:06:51;;;;;;;19.90;4.30;;;;;;;15.46;34.93;99003.43;107874;1260;73155;-67
2023/02/19 04:09:20;;;;;;;17.00;4.50;;;;;;;15.10;35.40;99003.08;108008;1259;61864;-66
2023/02/19 04:11:53;;;;;;;16.40;4.50;;;;;;;15.13;35.62;99000.61;108063;1254;60437;-65
2023/02/19 04:14:45;;;;;;;20.50;5.40;;;;;;;15.44;35.08;98997.20;107898;1254;73799;-66
2023/02/19 04:17:20;;;;;;;16.30;4.90;;;;;;;15.49;35.01;98998.63;108033;1254;68193;-65
2023/02/19 04:19:49;;;;;;;15.30;4.70;;;;;;;15.36;35.21;99001.89;107976;1255;73869;-66
2023/02/19 04:22:17;;;;;;;14.10;4.60;;;;;;;15.46;34.94;99001.13;107921;1254;61900;-66
2023/02/19 04:24:51;;;;;;;19.00;5.10;;;;;;;15.57;34.93;98995.36;107848;1259;61183;-66
2023/02/19 04:27:19;;;;;;;11.00;4.50;;;;;;;15.29;35.23;98995.35;108006;1257;75623;-65
2023/02/19 04:29:48;;;;;;;17.00;4.70;;;;;;;15.19;35.32;99002.05;107979;1257;71362;-65
2023/02/19 04:32:16;;;;;;;20.20;4.90;;;;;;;14.98;35.70;99004.75;108011;1257;73801;-66
2023/02/19 04:34:50;;;;;;;12.70;4.50;;;;;;;14.97;35.56;99011.12;107890;1259;61539;-66
2023/02/19 04:37:21;;;;;;;14.10;4.70;;;;;;;14.93;35.72;99015.48;107996;1256;61513;-65
2023/02/19 04:39:49;;;;;;;16.30;4.80;;;;;;;14.73;36.18;99020.65;107982;1255;73194;-66
2023/02/19 04:42:17;;;;;;;19.80;5.30;;;;;;;14.96;35.71;99017.60;107985;1257;71286;-65
2023/02/19 04:44:45;;;;;;;15.90;4.60;;;;;;;14.95;35.82;99023.81;107988;1257;72694;-66
2023/02/19 04:47:16;;;;;;;18.40;5.40;;;;;;;14.81;35.91;99035.79;108008;1256;61690;-66
2023/02/19 04:49:44;;;;;;;18.80;5.00;;;;;;;14.80;35.92;99034.28;108014;1256;60389;-65
2023/02/19 04:52:12;;;;;;;22.20;4.60;;;;;;;14.64;36.06;99039.13;108051;1257;74679;-66
2023/02/19 04:54:40;;;;;;;20.40;4.60;;;;;;;14.49;36.32;99046.67;108054;1255;70586;-66
2023/02/19 04:57:11;;;;;;;15.70;4.40;;;;;;;14.32;36.52;99046.60;108024;1257;73948;-66
2023/02/19 04:59:40;;;;;;;20.10;4.90;;;;;;;14.06;36.93;99054.08;108001;1257;61258;-66
2023/02/19 05:02:08;;;;;;;16.40;4.60;;;;;;;14.19;36.77;99055.83;108021;1257;60212;-66
2023/02/19 05:04:39;;;;;;;;;;;;;;;14.31;36.52;99053.08;108043;1260;73189;-65
2023/02/19 05:07:07;;;;;;;14.40;4.60;;;;;;;14.20;36.70;99052.42;108018;1258;71516;-67
2023/02/19 05:09:36;;;;;;;15.80;4.40;;;;;;;14.32;36.43;99054.37;108061;1257;73556;-67
2023/02/19 05:12:04;;;;;;;18.70;5.40;;;;;;;14.47;36.35;99062.05;108053;1258;62250;-66
2023/02/19 05:14:34;;;;;;;18.50;4.90;;;;;;;14.65;36.16;99068.22;107946;1255;60315;-66
2023/02/19 05:17:02;;;;;;;14.60;5.00;;;;;;;14.61;36.11;99071.15;108103;1257;75096;-69
2023/02/19 05:19:30;;;;;;;15.90;4.70;;;;;;;14.70;36.01;99074.73;108009;1257;71576;-64
2023/02/19 05:21:59;;;;;;;16.40;5.00;;;;;;;14.88;35.80;99076.09;108007;1256;72475;-65
2023/02/19 05:24:27;;;;;;;16.40;5.20;;;;;;;14.60;36.26;99081.61;108002;1258;62148;-65
2023/02/19 05:26:55;;;;;;;18.70;5.40;;;;;;;14.71;36.22;99082.77;108068;1257;61599;-65
2023/02/19 05:29:23;;;;;;;19.90;5.80;;;;;;;14.77;36.36;99080.81;108000;1257;73765;-67
2023/02/19 05:31:51;;;;;;;16.30;5.90;;;;;;;14.75;36.62;99076.29;107919;1257;69646;-65
2023/02/19 05:34:19;;;;;;;22.00;6.80;;;;;;;14.91;36.53;99083.84;107881;1259;72880;-65
2023/02/19 05:36:48;;;;;;;17.20;5.30;;;;;;;14.64;36.92;99086.48;107992;1256;61702;-64
2023/02/19 05:39:17;;;;;;;14.60;5.00;;;;;;;14.61;36.85;99089.30;107888;1257;61530;-66
2023/02/19 05:41:45;;;;;;;24.10;5.80;;;;;;;15.01;36.17;99081.91;107920;1257;75090;-65
2023/02/19 05:44:13;;;;;;;13.00;4.60;;;;;;;15.30;35.73;99082.45;107867;1256;71265;-65
2023/02/19 05:46:42;;;;;;;17.10;5.50;;;;;;;15.35;35.76;99079.64;107977;1257;73937;-65
2023/02/19 05:49:10;;;;;;;16.20;5.10;;;;;;;15.32;35.59;99082.69;107927;1257;61949;-66
2023/02/19 05:51:40;;;;;;;17.20;6.20;;;;;;;15.31;35.65;99082.14;107910;1256;61067;-66
2023/02/19 05:54:12;;;;;;;14.00;4.70;;;;;;;15.29;35.41;99091.73;107923;1257;74464;-65
2023/02/19 05:56:41;;;;;;;14.60;5.00;;;;;;;14.90;35.90;99094.33;108000;1258;69705;-65
2023/02/19 05:59:17;;;;;;;14.30;4.40;;;;;;;14.95;35.82;99094.16;107873;1257;73667;-67
2023/02/19 06:01:48;;;;;;;15.10;5.10;;;;;;;14.89;35.78;99096.48;107884;1255;62148;-65
2023/02/19 06:04:18;;;;;;;18.80;5.30;;;;;;;14.93;35.79;99102.45;107927;1256;60273;-67
2023/02/19 06:06:47;;;;;;;19.30;5.30;;;;;;;15.26;35.96;99106.92;107926;1259;74584;-66
2023/02/19 06:09:18;;;;;;;;;;;;;;;15.71;35.81;99107.87;108015;1257;70958;-65
2023/02/19 06:11:48;;;;;;;11.60;4.00;;;;;;;16.38;35.17;99106.35;108022;1256;73969;-67
2023/02/19 06:14:17;;;;;;;;;;;;;;;17.11;33.81;99105.15;107928;1256;61158;-63
2023/02/19 06:16:46;;;;;;;16.50;5.20;;;;;;;17.75;32.81;99105.57;107898;1256;60991;-66
2023/02/19 06:19:15;;;;;;;15.50;3.70;;;;;;;18.46;31.85;99111.36;107953;1256;75520;-65
2023/02/19 06:21:44;;;;;;;13.90;4.40;;;;;;;19.11;30.80;99100.38;107956;1257;71549;-66
2023/02/19 06:24:12;;;;;;;12.20;4.20;;;;;;;19.37;30.13;99099.67;107972;1257;71129;-66
2023/02/19 06:26:41;;;;;;;14.40;4.30;;;;;;;20.14;29.51;99098.20;107867;1257;60348;-66
2023/02/19 06:29:09;;;;;;;11.90;3.90;;;;;;;20.73;28.62;99094.90;107954;1255;61535;-66
2023/02/19 06:31:37;;;;;;;9.70;3.50;;;;;;;21.31;28.13;99091.46;107939;1257;73528;-66
2023/02/19 06:34:05;;;;;;;18.90;4.30;;;;;;;21.88;26.99;99089.27;107975;1254;71261;-66
2023/02/19 06:36:34;;;;;;;13.20;3.50;;;;;;;22.39;26.40;99088.72;107983;1256;72287;-65
2023/02/19 06:39:03;;;;;;;13.60;4.10;;;;;;;22.47;25.40;99084.88;107993;1254;60322;-66
2023/02/19 06:41:32;;;;;;;10.10;3.70;;;;;;;22.44;25.39;99091.46;108026;1259;61691;-67
2023/02/19 06:44:00;;;;;;;8.80;3.40;;;;;;;22.91;25.59;99088.15;107926;1260;74423;-66
2023/02/19 06:46:29;;;;;;;13.50;4.30;;;;;;;23.51;24.79;99080.09;107984;1257;71296;-66
2023/02/19 06:48:57;;;;;;;10.40;3.40;;;;;;;23.60;24.33;99080.51;107984;1260;73755;-68
2023/02/19 06:51:27;;;;;;;13.30;3.90;;;;;;;23.79;23.90;99085.79;108006;1256;60520;-67
2023/02/19 06:53:56;;;;;;;12.20;4.40;;;;;;;23.40;24.13;99079.12;107954;1256;61774;-67
2023/02/19 06:56:32;;;;;;;10.70;3.40;;;;;;;23.56;24.04;99079.49;107947;1254;75016;-66
2023/02/19 06:59:02;;;;;;;8.90;3.60;;;;;;;23.96;23.58;99085.20;108021;1255;70417;-66
2023/02/19 07:01:31;;;;;;;10.00;3.40;;;;;;;24.61;22.92;99083.98;107988;1255;72671;-66
2023/02/19 07:04:00;;;;;;;10.10;3.40;;;;;;;25.13;22.60;99081.21;107954;1254;60430;-66
2023/02/19 07:06:29;;;;;;;14.60;4.00;;;;;;;25.47;22.41;99079.42;107990;1254;61176;-66
2023/02/19 07:08:58;;;;;;;10.60;3.70;;;;;;;25.53;22.25;99079.58;108043;1257;74583;-66
2023/02/19 07:11:29;;;;;;;10.10;3.90;;;;;;;25.52;22.11;99071.64;108035;1257;71184;-66
2023/02/19 07:13:58;;;;;;;13.70;3.80;;;;;;;25.77;21.77;99073.46;108004;1254;71261;-67
2023/02/19 07:16:27;;;;;;;15.20;3.90;;;;;;;25.18;21.79;99076.66;108024;1254;61622;-66
2023/02/19 07:18:56;;;;;;;11.00;4.00;;;;;;;25.43;21.73;99077.39;108046;1254;61581;-66
2023/02/19 07:21:30;;;;;;;9.60;4.00;;;;;;;25.47;21.80;99080.52;108024;1258;74223;-67
2023/02/19 07:23:58;;;;;;;11.30;4.00;;;;;;;25.67;21.77;99085.18;108011;1254;71604;-66
2023/02/19 07:26:29;;;;;;;11.70;4.30;;;;;;;25.86;21.65;99086.50;107987;1257;73597;-66
2023/02/19 07:28:57;;;;;;;13.50;4.90;;;;;;;25.43;21.71;99087.44;107931;1256;60621;-67
2023/02/19 07:31:25;;;;;;;11.60;3.70;;;;;;;25.55;21.82;99084.23;107938;1256;61333;-68
2023/02/19 07:33:54;;;;;;;9.10;3.50;;;;;;;25.53;21.77;99083.36;107997;1256;75842;-67
2023/02/19 07:36:23;;;;;;;9.80;3.40;;;;;;;25.52;21.92;99082.08;107944;1257;71602;-67
2023/02/19 07:38:55;;;;;;;8.70;3.40;;;;;;;25.80;21.57;99080.95;107905;1257;73902;-69
2023/02/19 07:41:24;;;;;;;7.70;3.40;;;;;;;25.57;21.51;99083.59;107964;1256;60446;-66
2023/02/19 07:43:55;;;;;;;10.90;3.80;;;;;;;26.30;21.66;99085.67;107941;1257;60363;-67
2023/02/19 07:46:24;;;;;;;11.90;3.60;;;;;;;26.59;21.14;99085.09;107954;1257;74949;-66
2023/02/19 07:48:58;;;;;;;12.20;3.40;;;;;;;25.86;21.25;99081.60;108005;1258;71087;-67
2023/02/19 07:51:28;;;;;;;;;;;;;;;25.63;21.43;99079.85;107966;1260;72592;-67
2023/02/19 07:54:00;;;;;;;13.20;4.60;;;;;;;24.35;22.54;99086.08;107938;1257;60425;-67
2023/02/19 07:56:28;;;;;;;9.20;3.40;;;;;;;23.77;23.27;99097.90;108118;1254;61491;-66
2023/02/19 07:58:56;;;;;;;13.30;4.30;;;;;;;23.36;23.67;99093.98;108046;1254;75072;-67
2023/02/19 08:04:16;;;;;;;10.80;3.50;;;;;;;22.85;24.31;99105.65;108041;1254;73815;-65
2023/02/19 08:06:45;;;;;;;12.30;4.00;;;;;;;22.61;24.59;99112.40;107997;1254;60413;-67
2023/02/19 08:09:14;;;;;;;11.40;3.40;;;;;;;22.09;25.03;99108.79;107931;1257;61282;-66
2023/02/19 08:14:29;;;;;;;11.80;3.70;;;;;;;21.13;26.27;99110.94;108061;1259;71668;-68
2023/02/19 08:17:02;;;;;;;11.20;4.10;;;;;;;20.75;26.64;99110.48;108002;1259;73049;-67
2023/02/19 08:19:31;;;;;;;10.70;3.90;;;;;;;21.12;26.65;99111.23;108016;1254;61591;-69
2023/02/19 08:22:00;;;;;;;12.60;4.30;;;;;;;21.39;26.26;99110.70;108030;1254;61564;-67
2023/02/19 08:24:32;;;;;;;11.90;3.80;;;;;;;22.01;25.75;99112.91;108041;1254;74976;-67
2023/02/19 08:27:00;;;;;;;10.70;3.80;;;;;;;22.35;25.43;99115.09;108024;1254;70132;-67
2023/02/19 08:29:29;;;;;;;11.00;4.00;;;;;;;22.80;24.91;99109.36;108017;1254;73555;-69
2023/02/19 08:31:57;;;;;;;13.00;4.00;;;;;;;23.45;24.31;99106.30;108001;1254;60402;-67
2023/02/19 08:34:26;;;;;;;9.10;3.80;;;;;;;23.58;24.16;99108.31;107957;1254;61153;-66
2023/02/19 08:36:54;;;;;;;11.70;4.10;;;;;;;24.25;23.64;99112.58;107987;1259;73819;-68
2023/02/19 08:39:22;;;;;;;10.10;3.80;;;;;;;23.97;23.71;99111.71;108000;1257;71553;-67
2023/02/19 08:41:50;;;;;;;13.70;3.80;;;;;;;24.37;23.09;99114.63;108013;1256;73638;-69
2023/02/19 08:44:18;;;;;;;12.90;3.40;;;;;;;24.88;22.69;99119.42;108058;1254;60392;-68
2023/02/19 08:46:52;;;;;;;8.10;3.10;;;;;;;24.02;22.76;99120.45;108075;1256;61090;-67
2023/02/19 08:49:20;;;;;;;8.00;3.40;;;;;;;22.93;23.55;99129.88;108040;1257;74536;-68
2023/02/19 08:51:48;;;;;;;10.40;3.60;;;;;;;22.69;23.97;99129.62;108072;1259;71385;-69
2023/02/19 08:54:17;;;;;;;18.80;3.80;;;;;;;22.83;23.76;99127.73;108096;1256;72603;-67
2023/02/19 08:56:45;;;;;;;8.50;3.40;;;;;;;22.76;23.99;99127.81;108016;1256;61195;-67
2023/02/19 08:59:13;;;;;;;9.30;3.30;;;;;;;22.54;24.27;99124.44;108035;1256;60419;-68
2023/02/19 09:01:42;;;;;;;6.80;2.90;;;;;;;22.82;24.06;99122.76;107947;1256;74800;-68
2023/02/19 09:04:12;;;;;;;11.20;3.30;;;;;;;23.03;23.74;99121.83;108025;1259;71156;-68
2023/02/19 09:06:40;;;;;;;6.70;3.00;;;;;;;23.38;23.43;99112.58;107899;1260;73975;-68
2023/02/19 09:09:11;;;;;;;;;;;;;;;23.37;23.32;99119.38;107963;1256;62265;-66
2023/02/19 09:11:40;;;;;;;12.10;3.30;;;;;;;23.28;23.18;99114.41;108001;1255;60798;-69
2023/02/19 09:14:10;;;;;;;8.10;2.60;;;;;;;23.13;23.20;99119.41;107963;1256;75751;-65
2023/02/19 09:16:38;;;;;;;8.70;3.10;;;;;;;22.62;23.52;99118.03;108000;1256;69828;-68
2023/02/19 09:19:06;;;;;;;9.70;3.40;;;;;;;22.00;24.14;99115.36;108022;1257;73966;-66
2023/02/19 09:21:35;;;;;;;9.30;3.50;;;;;;;21.42;24.74;99116.50;108039;1256;61068;-65
2023/02/19 09:24:03;;;;;;;10.10;3.50;;;;;;;20.93;25.31;99113.91;108029;1256;60706;-67
2023/02/19 09:26:32;;;;;;;9.70;3.50;;;;;;;20.25;25.98;99119.45;108044;1257;75130;-66
2023/02/19 09:29:00;;;;;;;10.50;3.30;;;;;;;19.94;26.44;99112.45;107853;1256;135198;-66
2023/02/19 09:33:00;;;;;;;10.40;3.10;;;;;;;16.41;30.88;99118.73;104848;1293;601073;-65
2023/02/19 09:35:28;;;;;;;12.70;3.30;;;;;;;18.20;28.77;99118.58;107482;1261;59286;-66
2023/02/19 09:38:02;;;;;;;11.90;3.50;;;;;;;18.42;28.58;99120.41;107549;1262;59798;-63
2023/02/19 09:40:31;;;;;;;11.20;3.20;;;;;;;18.42;28.66;99114.19;107598;1261;73362;-66
2023/02/19 09:42:59;;;;;;;9.10;3.60;;;;;;;18.81;28.31;99116.53;107542;1265;70243;-67
2023/02/19 09:45:29;;;;;;;12.60;3.60;;;;;;;18.69;28.24;99119.89;107332;1267;166351;-68
2023/02/19 09:47:57;;;;;;;12.00;3.80;;;;;;;18.82;28.35;99122.45;107806;1260;60617;-67
2023/02/19 09:50:35;;;;;;;11.10;3.50;;;;;;;19.03;28.16;99119.90;107810;1263;60339;-67
2023/02/19 09:53:04;;;;;;;12.40;3.80;;;;;;;19.14;27.71;99112.40;107804;1261;71468;-66
2023/02/19 09:55:35;;;;;;;8.50;2.90;;;;;;;18.97;28.03;99119.37;108305;1253;69579;-66
2023/02/19 09:58:28;;;;;;;15.50;3.70;;;;;;;18.83;28.16;99116.67;108213;1257;73491;-67
2023/02/19 10:00:59;;;;;;;13.60;4.00;;;;;;;18.75;28.54;99115.95;108250;1254;59065;-66
2023/02/19 10:03:38;;;;;;;11.70;3.70;;;;;;;18.57;28.54;99112.91;108240;1251;60344;-66
2023/02/19 10:06:25;;;;;;;9.50;3.60;;;;;;;18.39;28.72;99103.94;108313;1251;73892;-67
2023/02/19 10:09:22;;;;;;;10.40;3.50;;;;;;;18.61;28.41;99096.05;108279;1255;71225;-67
2023/02/19 10:11:53;;;;;;;15.80;3.60;;;;;;;18.60;28.54;99093.62;108305;1251;73300;-68
2023/02/19 10:14:28;;;;;;;11.90;4.00;;;;;;;18.53;28.47;99091.52;108288;1251;60541;-68
2023/02/19 10:17:02;;;;;;;12.00;4.40;;;;;;;18.72;28.39;99089.35;108305;1251;60333;-66
2023/02/19 10:19:32;;;;;;;9.00;3.80;;;;;;;18.31;28.92;99092.90;108335;1251;72279;-67
2023/02/19 10:22:01;;;;;;;14.30;4.30;;;;;;;18.16;29.09;99093.61;108315;1251;71342;-68
2023/02/19 10:24:29;;;;;;;14.50;4.50;;;;;;;18.31;28.95;99090.08;108318;1251;73581;-66
2023/02/19 10:26:58;;;;;;;15.30;4.90;;;;;;;17.95;29.52;99082.08;108286;1256;60473;-65
2023/02/19 10:29:26;;;;;;;15.50;4.90;;;;;;;18.19;29.12;99084.67;108183;1254;61771;-66
2023/02/19 10:32:17;;;;;;;12.40;3.80;;;;;;;18.39;29.00;99081.71;108306;1256;74019;-66
2023/02/19 10:34:46;;;;;;;;;;;;;;;18.12;29.13;99081.02;108296;1251;71485;-65
2023/02/19 10:37:16;;;;;;;10.70;3.20;;;;;;;18.34;28.81;99077.73;108344;1255;73644;-68
2023/02/19 10:39:46;;;;;;;11.20;3.90;;;;;;;18.20;29.04;99074.85;108367;1252;59453;-67
2023/02/19 10:42:19;;;;;;;12.20;3.40;;;;;;;18.53;28.67;99070.59;108384;1251;61295;-68
2023/02/19 10:44:57;;;;;;;10.90;3.70;;;;;;;18.74;28.23;99064.34;108364;1253;72471;-68
2023/02/19 10:47:25;;;;;;;12.20;3.70;;;;;;;18.54;28.37;99057.89;108254;1251;70831;-68
2023/02/19 10:50:00;;;;;;;14.50;3.70;;;;;;;18.42;28.53;99052.50;108231;1254;71626;-66
2023/02/19 10:52:34;;;;;;;15.70;3.70;;;;;;;18.67;28.39;99041.63;108053;1257;59768;-67
2023/02/19 10:55:13;;;;;;;14.00;3.60;;;;;;;18.17;28.93;99037.27;108302;1251;61326;-69
2023/02/19 10:57:42;;;;;;;13.10;3.60;;;;;;;18.25;28.83;99034.40;108344;1251;73540;-69
2023/02/19 11:00:28;;;;;;;11.70;4.10;;;;;;;18.25;28.83;99026.48;108282;1254;71592;-67
2023/02/19 11:03:18;;;;;;;12.90;3.80;;;;;;;18.49;28.80;99016.18;108301;1251;72721;-66
2023/02/19 11:06:07;;;;;;;11.80;3.00;;;;;;;18.41;28.57;99005.50;108298;1252;60461;-67
2023/02/19 11:08:45;;;;;;;14.70;3.50;;;;;;;18.37;28.59;99007.45;108339;1251;60070;-66
2023/02/19 11:11:32;;;;;;;12.50;4.00;;;;;;;18.17;28.62;99001.55;108310;1254;74143;-68
2023/02/19 11:14:14;;;;;;;12.90;3.50;;;;;;;18.19;28.72;99001.54;108306;1251;70376;-66
2023/02/19 11:16:47;;;;;;;15.40;4.00;;;;;;;18.49;28.44;98997.89;108375;1254;71842;-67
2023/02/19 11:19:30;;;;;;;12.10;4.40;;;;;;;18.93;28.16;98988.52;108342;1251;59423;-68
2023/02/19 11:22:17;;;;;;;10.50;3.50;;;;;;;19.15;27.63;98984.46;108428;1253;60488;-65
2023/02/19 11:24:48;;;;;;;10.30;3.60;;;;;;;19.01;27.69;98985.67;108187;1257;72886;-66
2023/02/19 11:27:20;;;;;;;13.20;3.70;;;;;;;19.20;27.60;98982.45;108295;1257;71212;-65
2023/02/19 11:29:49;;;;;;;10.60;3.50;;;;;;;19.11;27.37;98977.11;108340;1254;73828;-66
2023/02/19 11:32:24;;;;;;;10.10;3.10;;;;;;;18.88;27.58;98972.42;108284;1254;59476;-67
2023/02/19 11:35:24;;;;;;;9.30;3.80;;;;;;;18.82;27.74;98974.36;108450;1252;60154;-67
2023/02/19 11:37:53;;;;;;;14.10;3.80;;;;;;;18.85;27.85;98975.04;108381;1252;71382;-66
2023/02/19 11:40:26;;;;;;;10.50;3.50;;;;;;;18.84;27.86;98977.58;108329;1253;71569;-67
2023/02/19 11:43:00;;;;;;;10.00;3.90;;;;;;;18.77;28.09;98975.85;108248;1254;73794;-67
2023/02/19 11:45:43;;;;;;;16.20;4.40;;;;;;;19.06;27.61;98975.94;108176;1254;60043;-66
2023/02/19 11:48:41;;;;;;;13.60;3.40;;;;;;;18.78;27.86;98980.03;108281;1253;60386;-68
2023/02/19 11:51:47;;;;;;;14.10;4.00;;;;;;;18.84;27.90;98980.56;108372;1254;73187;-67
2023/02/19 11:54:43;;;;;;;13.40;4.20;;;;;;;18.63;28.16;98982.80;108405;1254;70632;-67
2023/02/19 11:57:21;;;;;;;9.30;3.40;;;;;;;18.70;28.07;98989.27;108388;1253;73604;-66
2023/02/19 12:00:12;;;;;;;28.20;7.20;;;;;;;18.54;28.29;98992.80;108397;1253;60782;-67
2023/02/19 12:03:00;;;;;;;45.40;10.40;;;;;;;18.33;28.51;98993.82;108278;1254;61793;-67
2023/02/19 12:05:44;;;;;;;25.20;7.10;;;;;;;18.26;28.45;98992.44;108444;1254;74590;-66
2023/02/19 12:08:16;;;;;;;10.60;3.40;;;;;;;18.03;28.57;98993.31;108344;1253;70490;-67